sensor_id;sensor_type;location;lat;lon;timestamp;temperature;humidity
54124;DHT22;55741;53.252;5.788;2023-04-20T00:00:30;6.20;99.90
54124;DHT22;55741;53.252;5.788;2023-04-20T00:02:57;6.20;99.90
54124;DHT22;55741;53.252;5.788;2023-04-20T00:05:23;6.30;99.90
54124;DHT22;55741;53.252;5.788;2023-04-20T00:07:49;6.30;99.90
54124;DHT22;55741;53.252;5.788;2023-04-20T00:10:15;6.30;99.90
54124;DHT22;55741;53.252;5.788;2023-04-20T00:12:41;6.30;99.90
54124;DHT22;55741;53.252;5.788;2023-04-20T00:15:08;6.40;99.90
54124;DHT22;55741;53.252;5.788;2023-04-20T00:17:39;6.40;99.90
54124;DHT22;55741;53.252;5.788;2023-04-20T00:20:06;6.40;99.90
54124;DHT22;55741;53.252;5.788;2023-04-20T00:22:35;6.50;99.90
54124;DHT22;55741;53.252;5.788;2023-04-20T00:25:02;6.50;99.90
54124;DHT22;55741;53.252;5.788;2023-04-20T00:27:28;6.50;99.90
54124;DHT22;55741;53.252;5.788;2023-04-20T00:30:00;6.50;99.90
54124;DHT22;55741;53.252;5.788;2023-04-20T00:32:26;6.50;99.90
54124;DHT22;55741;53.252;5.788;2023-04-20T00:34:52;6.50;99.90
54124;DHT22;55741;53.252;5.788;2023-04-20T00:37:18;6.50;99.90
54124;DHT22;55741;53.252;5.788;2023-04-20T00:39:44;6.50;99.90
54124;DHT22;55741;53.252;5.788;2023-04-20T00:42:10;6.50;99.90
54124;DHT22;55741;53.252;5.788;2023-04-20T00:44:37;6.50;99.90
54124;DHT22;55741;53.252;5.788;2023-04-20T00:47:05;6.50;99.90
54124;DHT22;55741;53.252;5.788;2023-04-20T00:49:31;6.50;99.90
54124;DHT22;55741;53.252;5.788;2023-04-20T00:51:57;6.60;99.90
54124;DHT22;55741;53.252;5.788;2023-04-20T00:54:25;6.60;99.90
54124;DHT22;55741;53.252;5.788;2023-04-20T00:56:51;6.60;99.90
54124;DHT22;55741;53.252;5.788;2023-04-20T00:59:18;6.60;99.90
54124;DHT22;55741;53.252;5.788;2023-04-20T01:01:44;6.60;99.90
54124;DHT22;55741;53.252;5.788;2023-04-20T01:04:10;6.60;99.90
54124;DHT22;55741;53.252;5.788;2023-04-20T01:06:36;6.50;99.90
54124;DHT22;55741;53.252;5.788;2023-04-20T01:09:03;6.60;99.90
54124;DHT22;55741;53.252;5.788;2023-04-20T01:11:29;6.60;99.90
54124;DHT22;55741;53.252;5.788;2023-04-20T01:13:55;6.60;99.90
54124;DHT22;55741;53.252;5.788;2023-04-20T01:16:21;6.50;99.90
54124;DHT22;55741;53.252;5.788;2023-04-20T01:18:49;6.50;99.90
54124;DHT22;55741;53.252;5.788;2023-04-20T01:21:17;6.60;99.90
54124;DHT22;55741;53.252;5.788;2023-04-20T01:23:44;6.60;99.90
54124;DHT22;55741;53.252;5.788;2023-04-20T01:26:12;6.60;99.90
54124;DHT22;55741;53.252;5.788;2023-04-20T01:28:39;6.50;99.90
54124;DHT22;55741;53.252;5.788;2023-04-20T01:31:06;6.50;99.90
54124;DHT22;55741;53.252;5.788;2023-04-20T01:33:33;6.50;99.90
54124;DHT22;55741;53.252;5.788;2023-04-20T01:35:59;6.50;99.90
54124;DHT22;55741;53.252;5.788;2023-04-20T01:38:25;6.50;99.90
54124;DHT22;55741;53.252;5.788;2023-04-20T01:40:52;6.50;99.90
54124;DHT22;55741;53.252;5.788;2023-04-20T01:43:20;6.50;99.90
54124;DHT22;55741;53.252;5.788;2023-04-20T01:45:46;6.50;99.90
54124;DHT22;55741;53.252;5.788;2023-04-20T01:48:14;6.50;99.90
54124;DHT22;55741;53.252;5.788;2023-04-20T01:50:39;6.50;99.90
54124;DHT22;55741;53.252;5.788;2023-04-20T01:53:05;6.50;99.90
54124;DHT22;55741;53.252;5.788;2023-04-20T01:55:31;6.50;99.90
54124;DHT22;55741;53.252;5.788;2023-04-20T01:57:57;6.50;99.90
54124;DHT22;55741;53.252;5.788;2023-04-20T02:00:24;6.50;99.90
54124;DHT22;55741;53.252;5.788;2023-04-20T02:02:52;6.50;99.90
54124;DHT22;55741;53.252;5.788;2023-04-20T02:05:18;6.50;99.90
54124;DHT22;55741;53.252;5.788;2023-04-20T02:07:44;6.50;99.90
54124;DHT22;55741;53.252;5.788;2023-04-20T02:10:10;6.50;99.90
54124;DHT22;55741;53.252;5.788;2023-04-20T02:12:36;6.50;99.90
54124;DHT22;55741;53.252;5.788;2023-04-20T02:15:03;6.50;99.90
54124;DHT22;55741;53.252;5.788;2023-04-20T02:17:29;6.60;99.90
54124;DHT22;55741;53.252;5.788;2023-04-20T02:19:57;6.60;99.90
54124;DHT22;55741;53.252;5.788;2023-04-20T02:22:23;6.60;99.90
54124;DHT22;55741;53.252;5.788;2023-04-20T02:24:49;6.60;99.90
54124;DHT22;55741;53.252;5.788;2023-04-20T02:27:15;6.60;99.90
54124;DHT22;55741;53.252;5.788;2023-04-20T02:29:41;6.60;99.90
54124;DHT22;55741;53.252;5.788;2023-04-20T02:32:06;6.60;99.90
54124;DHT22;55741;53.252;5.788;2023-04-20T02:34:33;6.60;99.90
54124;DHT22;55741;53.252;5.788;2023-04-20T02:36:59;6.70;99.90
54124;DHT22;55741;53.252;5.788;2023-04-20T02:39:25;6.70;99.90
54124;DHT22;55741;53.252;5.788;2023-04-20T02:41:52;6.70;99.90
54124;DHT22;55741;53.252;5.788;2023-04-20T02:44:18;6.70;99.90
54124;DHT22;55741;53.252;5.788;2023-04-20T02:46:43;6.70;99.90
54124;DHT22;55741;53.252;5.788;2023-04-20T02:49:11;6.70;99.90
54124;DHT22;55741;53.252;5.788;2023-04-20T02:51:39;6.70;99.90
54124;DHT22;55741;53.252;5.788;2023-04-20T02:54:05;6.70;99.90
54124;DHT22;55741;53.252;5.788;2023-04-20T02:56:31;6.70;99.90
54124;DHT22;55741;53.252;5.788;2023-04-20T02:58:57;6.80;99.90
54124;DHT22;55741;53.252;5.788;2023-04-20T03:01:23;6.80;99.90
54124;DHT22;55741;53.252;5.788;2023-04-20T03:03:49;6.80;99.90
54124;DHT22;55741;53.252;5.788;2023-04-20T03:06:15;6.80;99.90
54124;DHT22;55741;53.252;5.788;2023-04-20T03:08:44;6.80;99.90
54124;DHT22;55741;53.252;5.788;2023-04-20T03:11:10;6.80;99.90
54124;DHT22;55741;53.252;5.788;2023-04-20T03:13:37;6.80;99.90
54124;DHT22;55741;53.252;5.788;2023-04-20T03:16:04;6.80;99.90
54124;DHT22;55741;53.252;5.788;2023-04-20T03:18:30;6.80;99.90
54124;DHT22;55741;53.252;5.788;2023-04-20T03:20:56;6.80;99.90
54124;DHT22;55741;53.252;5.788;2023-04-20T03:23:22;6.80;99.90
54124;DHT22;55741;53.252;5.788;2023-04-20T03:25:48;6.80;99.90
54124;DHT22;55741;53.252;5.788;2023-04-20T03:28:15;6.80;99.90
54124;DHT22;55741;53.252;5.788;2023-04-20T03:30:41;6.80;99.90
54124;DHT22;55741;53.252;5.788;2023-04-20T03:33:07;6.80;99.90
54124;DHT22;55741;53.252;5.788;2023-04-20T03:35:33;6.80;99.90
54124;DHT22;55741;53.252;5.788;2023-04-20T03:37:59;6.90;99.90
54124;DHT22;55741;53.252;5.788;2023-04-20T03:40:27;6.90;99.90
54124;DHT22;55741;53.252;5.788;2023-04-20T03:42:54;6.90;99.90
54124;DHT22;55741;53.252;5.788;2023-04-20T03:45:24;6.90;99.90
54124;DHT22;55741;53.252;5.788;2023-04-20T03:47:50;6.90;99.90
54124;DHT22;55741;53.252;5.788;2023-04-20T03:50:18;6.90;99.90
54124;DHT22;55741;53.252;5.788;2023-04-20T03:52:44;7.00;99.90
54124;DHT22;55741;53.252;5.788;2023-04-20T03:55:10;6.90;99.90
54124;DHT22;55741;53.252;5.788;2023-04-20T03:57:37;6.90;99.90
54124;DHT22;55741;53.252;5.788;2023-04-20T04:00:03;6.90;99.90
54124;DHT22;55741;53.252;5.788;2023-04-20T04:02:47;7.00;99.90
54124;DHT22;55741;53.252;5.788;2023-04-20T04:05:13;7.00;99.90
54124;DHT22;55741;53.252;5.788;2023-04-20T04:07:39;7.00;99.90
54124;DHT22;55741;53.252;5.788;2023-04-20T04:10:05;7.10;99.90
54124;DHT22;55741;53.252;5.788;2023-04-20T04:12:31;7.10;99.90
54124;DHT22;55741;53.252;5.788;2023-04-20T04:14:57;7.10;99.90
54124;DHT22;55741;53.252;5.788;2023-04-20T04:17:23;7.10;99.90
54124;DHT22;55741;53.252;5.788;2023-04-20T04:19:49;7.10;99.90
54124;DHT22;55741;53.252;5.788;2023-04-20T04:22:16;7.20;99.90
54124;DHT22;55741;53.252;5.788;2023-04-20T04:24:42;7.20;99.90
54124;DHT22;55741;53.252;5.788;2023-04-20T04:27:08;7.10;99.90
54124;DHT22;55741;53.252;5.788;2023-04-20T04:29:35;7.20;99.90
54124;DHT22;55741;53.252;5.788;2023-04-20T04:32:04;7.20;99.90
54124;DHT22;55741;53.252;5.788;2023-04-20T04:34:37;7.20;99.90
54124;DHT22;55741;53.252;5.788;2023-04-20T04:37:03;7.10;99.90
54124;DHT22;55741;53.252;5.788;2023-04-20T04:39:29;7.10;99.90
54124;DHT22;55741;53.252;5.788;2023-04-20T04:41:55;7.10;99.90
54124;DHT22;55741;53.252;5.788;2023-04-20T04:44:22;7.10;99.90
54124;DHT22;55741;53.252;5.788;2023-04-20T04:46:48;7.10;99.90
54124;DHT22;55741;53.252;5.788;2023-04-20T04:49:13;7.10;99.90
54124;DHT22;55741;53.252;5.788;2023-04-20T04:51:41;7.10;99.90
54124;DHT22;55741;53.252;5.788;2023-04-20T04:54:06;7.10;99.90
54124;DHT22;55741;53.252;5.788;2023-04-20T04:56:32;7.10;99.90
54124;DHT22;55741;53.252;5.788;2023-04-20T04:58:58;7.10;99.90
54124;DHT22;55741;53.252;5.788;2023-04-20T05:01:24;7.10;99.90
54124;DHT22;55741;53.252;5.788;2023-04-20T05:03:50;7.00;99.90
54124;DHT22;55741;53.252;5.788;2023-04-20T05:06:16;7.00;99.90
54124;DHT22;55741;53.252;5.788;2023-04-20T05:08:42;7.00;99.90
54124;DHT22;55741;53.252;5.788;2023-04-20T05:11:08;7.00;99.90
54124;DHT22;55741;53.252;5.788;2023-04-20T05:13:34;7.00;99.90
54124;DHT22;55741;53.252;5.788;2023-04-20T05:16:00;7.00;99.90
54124;DHT22;55741;53.252;5.788;2023-04-20T05:18:25;7.00;99.90
54124;DHT22;55741;53.252;5.788;2023-04-20T05:20:51;7.00;99.90
54124;DHT22;55741;53.252;5.788;2023-04-20T05:23:18;7.10;99.90
54124;DHT22;55741;53.252;5.788;2023-04-20T05:25:43;7.10;99.90
54124;DHT22;55741;53.252;5.788;2023-04-20T05:28:09;7.10;99.90
54124;DHT22;55741;53.252;5.788;2023-04-20T05:30:35;7.20;99.90
54124;DHT22;55741;53.252;5.788;2023-04-20T05:33:01;7.20;99.90
54124;DHT22;55741;53.252;5.788;2023-04-20T05:35:27;7.20;99.90
54124;DHT22;55741;53.252;5.788;2023-04-20T05:37:53;7.20;99.90
54124;DHT22;55741;53.252;5.788;2023-04-20T05:40:18;7.30;99.90
54124;DHT22;55741;53.252;5.788;2023-04-20T05:42:46;7.40;99.90
54124;DHT22;55741;53.252;5.788;2023-04-20T05:45:12;7.40;99.90
54124;DHT22;55741;53.252;5.788;2023-04-20T05:47:38;7.40;99.90
54124;DHT22;55741;53.252;5.788;2023-04-20T05:50:05;7.40;99.90
54124;DHT22;55741;53.252;5.788;2023-04-20T05:52:32;7.50;99.90
54124;DHT22;55741;53.252;5.788;2023-04-20T05:54:58;7.60;99.90
54124;DHT22;55741;53.252;5.788;2023-04-20T05:57:25;7.60;99.90
54124;DHT22;55741;53.252;5.788;2023-04-20T05:59:51;7.70;99.90
54124;DHT22;55741;53.252;5.788;2023-04-20T06:02:17;7.70;99.90
54124;DHT22;55741;53.252;5.788;2023-04-20T06:04:43;7.70;99.90
54124;DHT22;55741;53.252;5.788;2023-04-20T06:07:08;7.70;99.90
54124;DHT22;55741;53.252;5.788;2023-04-20T06:09:34;7.80;99.90
54124;DHT22;55741;53.252;5.788;2023-04-20T06:12:00;7.80;99.90
54124;DHT22;55741;53.252;5.788;2023-04-20T06:14:27;7.90;99.90
54124;DHT22;55741;53.252;5.788;2023-04-20T06:16:53;7.90;99.90
54124;DHT22;55741;53.252;5.788;2023-04-20T06:19:18;8.00;99.90
54124;DHT22;55741;53.252;5.788;2023-04-20T06:21:44;8.00;99.90
54124;DHT22;55741;53.252;5.788;2023-04-20T06:24:11;8.10;99.90
54124;DHT22;55741;53.252;5.788;2023-04-20T06:26:36;8.10;99.90
54124;DHT22;55741;53.252;5.788;2023-04-20T06:29:02;8.10;99.90
54124;DHT22;55741;53.252;5.788;2023-04-20T06:31:28;8.10;99.90
54124;DHT22;55741;53.252;5.788;2023-04-20T06:33:54;8.10;99.90
54124;DHT22;55741;53.252;5.788;2023-04-20T06:36:19;8.20;99.90
54124;DHT22;55741;53.252;5.788;2023-04-20T06:38:45;8.20;99.90
54124;DHT22;55741;53.252;5.788;2023-04-20T06:41:11;8.30;99.90
54124;DHT22;55741;53.252;5.788;2023-04-20T06:43:37;8.40;99.90
54124;DHT22;55741;53.252;5.788;2023-04-20T06:46:03;8.50;99.90
54124;DHT22;55741;53.252;5.788;2023-04-20T06:48:28;8.60;99.90
54124;DHT22;55741;53.252;5.788;2023-04-20T06:50:54;8.70;99.90
54124;DHT22;55741;53.252;5.788;2023-04-20T06:53:22;8.70;99.90
54124;DHT22;55741;53.252;5.788;2023-04-20T06:55:47;8.70;99.90
54124;DHT22;55741;53.252;5.788;2023-04-20T06:58:13;8.70;99.90
54124;DHT22;55741;53.252;5.788;2023-04-20T07:00:39;8.80;99.90
54124;DHT22;55741;53.252;5.788;2023-04-20T07:03:05;8.80;99.90
54124;DHT22;55741;53.252;5.788;2023-04-20T07:05:31;8.80;99.90
54124;DHT22;55741;53.252;5.788;2023-04-20T07:07:57;8.80;99.90
54124;DHT22;55741;53.252;5.788;2023-04-20T07:10:22;8.90;99.90
54124;DHT22;55741;53.252;5.788;2023-04-20T07:12:48;8.90;99.90
54124;DHT22;55741;53.252;5.788;2023-04-20T07:15:14;8.90;99.90
54124;DHT22;55741;53.252;5.788;2023-04-20T07:17:40;8.90;99.90
54124;DHT22;55741;53.252;5.788;2023-04-20T07:20:06;8.80;99.90
54124;DHT22;55741;53.252;5.788;2023-04-20T07:22:37;8.80;99.90
54124;DHT22;55741;53.252;5.788;2023-04-20T07:25:05;8.80;99.90
54124;DHT22;55741;53.252;5.788;2023-04-20T07:27:36;8.70;99.90
54124;DHT22;55741;53.252;5.788;2023-04-20T07:30:04;8.70;99.90
54124;DHT22;55741;53.252;5.788;2023-04-20T07:32:32;8.60;99.90
54124;DHT22;55741;53.252;5.788;2023-04-20T07:34:58;8.60;99.90
54124;DHT22;55741;53.252;5.788;2023-04-20T07:37:23;8.50;99.90
54124;DHT22;55741;53.252;5.788;2023-04-20T07:39:52;8.50;99.90
54124;DHT22;55741;53.252;5.788;2023-04-20T07:42:19;8.40;99.90
54124;DHT22;55741;53.252;5.788;2023-04-20T07:44:45;8.30;99.90
54124;DHT22;55741;53.252;5.788;2023-04-20T07:47:11;8.30;99.90
54124;DHT22;55741;53.252;5.788;2023-04-20T07:49:37;8.20;99.90
54124;DHT22;55741;53.252;5.788;2023-04-20T07:52:06;8.10;99.90
54124;DHT22;55741;53.252;5.788;2023-04-20T07:54:34;8.00;99.90
54124;DHT22;55741;53.252;5.788;2023-04-20T07:57:00;8.00;99.90
54124;DHT22;55741;53.252;5.788;2023-04-20T07:59:26;7.90;99.90
54124;DHT22;55741;53.252;5.788;2023-04-20T08:01:57;7.80;99.90
54124;DHT22;55741;53.252;5.788;2023-04-20T08:04:25;7.70;99.90
54124;DHT22;55741;53.252;5.788;2023-04-20T08:06:50;7.70;99.90
54124;DHT22;55741;53.252;5.788;2023-04-20T08:09:16;7.60;99.90
54124;DHT22;55741;53.252;5.788;2023-04-20T08:11:42;7.60;99.90
54124;DHT22;55741;53.252;5.788;2023-04-20T08:14:11;7.60;99.90
54124;DHT22;55741;53.252;5.788;2023-04-20T08:16:37;7.60;99.90
54124;DHT22;55741;53.252;5.788;2023-04-20T08:19:03;7.60;99.90
54124;DHT22;55741;53.252;5.788;2023-04-20T08:21:40;7.60;99.90
54124;DHT22;55741;53.252;5.788;2023-04-20T08:24:07;7.50;99.90
54124;DHT22;55741;53.252;5.788;2023-04-20T08:26:34;7.60;99.90
54124;DHT22;55741;53.252;5.788;2023-04-20T08:29:00;7.60;99.90
54124;DHT22;55741;53.252;5.788;2023-04-20T08:31:26;7.60;99.90
54124;DHT22;55741;53.252;5.788;2023-04-20T08:33:52;7.50;99.90
54124;DHT22;55741;53.252;5.788;2023-04-20T08:36:18;7.50;99.90
54124;DHT22;55741;53.252;5.788;2023-04-20T08:38:44;7.40;99.90
54124;DHT22;55741;53.252;5.788;2023-04-20T08:41:11;7.40;99.90
54124;DHT22;55741;53.252;5.788;2023-04-20T08:43:38;7.30;99.90
54124;DHT22;55741;53.252;5.788;2023-04-20T08:46:04;7.20;99.90
54124;DHT22;55741;53.252;5.788;2023-04-20T08:48:34;7.20;99.90
54124;DHT22;55741;53.252;5.788;2023-04-20T08:51:04;7.20;99.90
54124;DHT22;55741;53.252;5.788;2023-04-20T08:53:31;7.20;99.90
54124;DHT22;55741;53.252;5.788;2023-04-20T08:55:59;7.20;99.90
54124;DHT22;55741;53.252;5.788;2023-04-20T08:58:29;7.20;99.90
54124;DHT22;55741;53.252;5.788;2023-04-20T09:00:56;7.20;99.90
54124;DHT22;55741;53.252;5.788;2023-04-20T09:03:39;7.20;99.90
54124;DHT22;55741;53.252;5.788;2023-04-20T09:06:13;7.10;99.90
54124;DHT22;55741;53.252;5.788;2023-04-20T09:08:40;7.10;99.90
54124;DHT22;55741;53.252;5.788;2023-04-20T09:11:19;7.10;99.90
54124;DHT22;55741;53.252;5.788;2023-04-20T09:14:05;7.10;99.90
54124;DHT22;55741;53.252;5.788;2023-04-20T09:16:32;7.10;99.90
54124;DHT22;55741;53.252;5.788;2023-04-20T09:19:02;6.90;99.90
54124;DHT22;55741;53.252;5.788;2023-04-20T09:21:28;6.90;99.90
54124;DHT22;55741;53.252;5.788;2023-04-20T09:24:04;6.90;99.90
54124;DHT22;55741;53.252;5.788;2023-04-20T09:26:34;6.80;99.90
54124;DHT22;55741;53.252;5.788;2023-04-20T09:29:02;6.80;99.90
54124;DHT22;55741;53.252;5.788;2023-04-20T09:31:28;6.80;99.90
54124;DHT22;55741;53.252;5.788;2023-04-20T09:34:01;6.90;99.90
54124;DHT22;55741;53.252;5.788;2023-04-20T09:36:42;6.90;99.90
54124;DHT22;55741;53.252;5.788;2023-04-20T09:39:13;6.90;99.90
54124;DHT22;55741;53.252;5.788;2023-04-20T09:41:41;7.00;99.90
54124;DHT22;55741;53.252;5.788;2023-04-20T09:44:08;7.10;99.90
54124;DHT22;55741;53.252;5.788;2023-04-20T09:46:37;7.10;99.90
54124;DHT22;55741;53.252;5.788;2023-04-20T09:49:05;7.20;99.90
54124;DHT22;55741;53.252;5.788;2023-04-20T09:51:35;7.30;99.90
54124;DHT22;55741;53.252;5.788;2023-04-20T09:54:03;7.40;99.90
54124;DHT22;55741;53.252;5.788;2023-04-20T09:56:31;7.40;99.90
54124;DHT22;55741;53.252;5.788;2023-04-20T09:58:58;7.50;99.90
54124;DHT22;55741;53.252;5.788;2023-04-20T10:01:25;7.50;99.90
54124;DHT22;55741;53.252;5.788;2023-04-20T10:03:52;7.60;99.90
54124;DHT22;55741;53.252;5.788;2023-04-20T10:06:22;7.50;99.90
54124;DHT22;55741;53.252;5.788;2023-04-20T10:08:50;7.60;99.90
54124;DHT22;55741;53.252;5.788;2023-04-20T10:11:31;7.60;99.90
54124;DHT22;55741;53.252;5.788;2023-04-20T10:13:58;7.70;99.90
54124;DHT22;55741;53.252;5.788;2023-04-20T10:16:25;7.80;99.90
54124;DHT22;55741;53.252;5.788;2023-04-20T10:19:02;7.90;99.90
54124;DHT22;55741;53.252;5.788;2023-04-20T10:21:29;8.00;99.90
54124;DHT22;55741;53.252;5.788;2023-04-20T10:23:57;8.00;99.90
54124;DHT22;55741;53.252;5.788;2023-04-20T10:26:46;8.20;99.90
54124;DHT22;55741;53.252;5.788;2023-04-20T10:29:28;8.40;99.90
54124;DHT22;55741;53.252;5.788;2023-04-20T10:31:54;8.60;99.90
54124;DHT22;55741;53.252;5.788;2023-04-20T10:37:09;9.00;99.90
54124;DHT22;55741;53.252;5.788;2023-04-20T10:39:36;9.20;99.90
54124;DHT22;55741;53.252;5.788;2023-04-20T10:42:08;9.30;99.90
54124;DHT22;55741;53.252;5.788;2023-04-20T10:44:34;9.40;99.90
54124;DHT22;55741;53.252;5.788;2023-04-20T10:47:00;9.40;99.90
54124;DHT22;55741;53.252;5.788;2023-04-20T10:49:27;9.40;99.90
54124;DHT22;55741;53.252;5.788;2023-04-20T10:51:54;9.40;99.90
54124;DHT22;55741;53.252;5.788;2023-04-20T10:54:21;9.50;99.90
54124;DHT22;55741;53.252;5.788;2023-04-20T10:56:50;9.50;99.90
54124;DHT22;55741;53.252;5.788;2023-04-20T10:59:23;9.60;99.90
54124;DHT22;55741;53.252;5.788;2023-04-20T11:01:50;9.60;99.90
54124;DHT22;55741;53.252;5.788;2023-04-20T11:04:16;9.60;99.90
54124;DHT22;55741;53.252;5.788;2023-04-20T11:06:45;9.60;99.90
54124;DHT22;55741;53.252;5.788;2023-04-20T11:09:16;9.60;99.90
54124;DHT22;55741;53.252;5.788;2023-04-20T11:11:45;9.70;99.90
54124;DHT22;55741;53.252;5.788;2023-04-20T11:14:22;9.60;99.90
54124;DHT22;55741;53.252;5.788;2023-04-20T11:16:52;9.60;99.90
54124;DHT22;55741;53.252;5.788;2023-04-20T11:19:29;9.50;99.90
54124;DHT22;55741;53.252;5.788;2023-04-20T11:21:55;9.50;99.90
54124;DHT22;55741;53.252;5.788;2023-04-20T11:24:23;9.40;99.90
54124;DHT22;55741;53.252;5.788;2023-04-20T11:26:50;9.30;99.90
54124;DHT22;55741;53.252;5.788;2023-04-20T11:29:38;9.30;99.90
54124;DHT22;55741;53.252;5.788;2023-04-20T11:32:09;9.20;99.90
54124;DHT22;55741;53.252;5.788;2023-04-20T11:34:37;9.10;99.90
54124;DHT22;55741;53.252;5.788;2023-04-20T11:37:08;9.00;99.90
54124;DHT22;55741;53.252;5.788;2023-04-20T11:39:35;9.00;99.90
54124;DHT22;55741;53.252;5.788;2023-04-20T11:42:02;8.90;99.90
54124;DHT22;55741;53.252;5.788;2023-04-20T11:44:28;8.90;99.90
54124;DHT22;55741;53.252;5.788;2023-04-20T11:46:54;8.80;99.90
54124;DHT22;55741;53.252;5.788;2023-04-20T11:49:24;8.90;99.90
54124;DHT22;55741;53.252;5.788;2023-04-20T11:51:50;8.90;99.90
54124;DHT22;55741;53.252;5.788;2023-04-20T11:54:16;8.90;99.90
54124;DHT22;55741;53.252;5.788;2023-04-20T11:56:46;8.90;99.90
54124;DHT22;55741;53.252;5.788;2023-04-20T11:59:14;8.90;99.90
54124;DHT22;55741;53.252;5.788;2023-04-20T12:01:41;8.90;99.90
54124;DHT22;55741;53.252;5.788;2023-04-20T12:04:07;8.90;99.90
54124;DHT22;55741;53.252;5.788;2023-04-20T12:06:33;9.10;99.90
54124;DHT22;55741;53.252;5.788;2023-04-20T12:08:59;9.30;99.90
54124;DHT22;55741;53.252;5.788;2023-04-20T12:11:25;9.50;99.90
54124;DHT22;55741;53.252;5.788;2023-04-20T12:13:51;9.70;99.90
54124;DHT22;55741;53.252;5.788;2023-04-20T12:16:18;9.80;99.90
54124;DHT22;55741;53.252;5.788;2023-04-20T12:18:43;9.90;99.90
54124;DHT22;55741;53.252;5.788;2023-04-20T12:21:10;10.00;99.90
54124;DHT22;55741;53.252;5.788;2023-04-20T12:23:35;10.00;99.90
54124;DHT22;55741;53.252;5.788;2023-04-20T12:26:02;10.10;99.90
54124;DHT22;55741;53.252;5.788;2023-04-20T12:28:29;10.20;99.90
54124;DHT22;55741;53.252;5.788;2023-04-20T12:30:55;10.30;99.90
54124;DHT22;55741;53.252;5.788;2023-04-20T12:33:21;10.30;99.90
54124;DHT22;55741;53.252;5.788;2023-04-20T12:35:47;10.30;99.90
54124;DHT22;55741;53.252;5.788;2023-04-20T12:38:13;10.30;99.90
54124;DHT22;55741;53.252;5.788;2023-04-20T12:40:39;10.40;99.90
54124;DHT22;55741;53.252;5.788;2023-04-20T12:43:05;10.50;99.90
54124;DHT22;55741;53.252;5.788;2023-04-20T12:45:31;10.60;99.90
54124;DHT22;55741;53.252;5.788;2023-04-20T12:47:57;10.70;99.90
54124;DHT22;55741;53.252;5.788;2023-04-20T12:50:25;10.70;99.90
54124;DHT22;55741;53.252;5.788;2023-04-20T12:52:51;10.70;99.90
54124;DHT22;55741;53.252;5.788;2023-04-20T12:55:18;10.70;99.90
54124;DHT22;55741;53.252;5.788;2023-04-20T12:57:44;10.70;99.90
54124;DHT22;55741;53.252;5.788;2023-04-20T13:00:11;10.70;99.90
54124;DHT22;55741;53.252;5.788;2023-04-20T13:02:38;10.70;99.90
54124;DHT22;55741;53.252;5.788;2023-04-20T13:05:04;10.80;99.90
54124;DHT22;55741;53.252;5.788;2023-04-20T13:07:30;10.90;99.90
54124;DHT22;55741;53.252;5.788;2023-04-20T13:09:57;11.00;99.90
54124;DHT22;55741;53.252;5.788;2023-04-20T13:12:23;11.20;99.90
54124;DHT22;55741;53.252;5.788;2023-04-20T13:14:50;11.50;99.90
54124;DHT22;55741;53.252;5.788;2023-04-20T13:17:16;11.70;99.90
54124;DHT22;55741;53.252;5.788;2023-04-20T13:19:44;11.70;99.90
54124;DHT22;55741;53.252;5.788;2023-04-20T13:22:10;11.60;99.90
54124;DHT22;55741;53.252;5.788;2023-04-20T13:24:36;11.50;99.90
54124;DHT22;55741;53.252;5.788;2023-04-20T13:27:02;11.40;99.90
54124;DHT22;55741;53.252;5.788;2023-04-20T13:29:29;11.30;99.90
54124;DHT22;55741;53.252;5.788;2023-04-20T13:31:55;11.30;99.90
54124;DHT22;55741;53.252;5.788;2023-04-20T13:34:21;11.30;99.90
54124;DHT22;55741;53.252;5.788;2023-04-20T13:36:47;11.30;99.90
54124;DHT22;55741;53.252;5.788;2023-04-20T13:39:14;11.30;99.90
54124;DHT22;55741;53.252;5.788;2023-04-20T13:41:40;11.20;99.90
54124;DHT22;55741;53.252;5.788;2023-04-20T13:44:06;11.20;99.90
54124;DHT22;55741;53.252;5.788;2023-04-20T13:46:32;11.20;99.90
54124;DHT22;55741;53.252;5.788;2023-04-20T13:48:58;11.20;99.90
54124;DHT22;55741;53.252;5.788;2023-04-20T13:51:24;11.20;99.90
54124;DHT22;55741;53.252;5.788;2023-04-20T13:53:51;11.40;99.90
54124;DHT22;55741;53.252;5.788;2023-04-20T13:56:17;11.80;99.90
54124;DHT22;55741;53.252;5.788;2023-04-20T13:58:43;12.10;99.90
54124;DHT22;55741;53.252;5.788;2023-04-20T14:01:12;12.30;99.90
54124;DHT22;55741;53.252;5.788;2023-04-20T14:03:39;12.50;99.90
54124;DHT22;55741;53.252;5.788;2023-04-20T14:06:05;12.60;99.90
54124;DHT22;55741;53.252;5.788;2023-04-20T14:08:31;12.80;99.90
54124;DHT22;55741;53.252;5.788;2023-04-20T14:10:57;12.90;99.90
54124;DHT22;55741;53.252;5.788;2023-04-20T14:13:23;12.90;99.90
54124;DHT22;55741;53.252;5.788;2023-04-20T14:15:49;12.80;99.90
54124;DHT22;55741;53.252;5.788;2023-04-20T14:18:15;12.70;99.90
54124;DHT22;55741;53.252;5.788;2023-04-20T14:20:41;12.60;99.90
54124;DHT22;55741;53.252;5.788;2023-04-20T14:23:07;12.30;99.90
54124;DHT22;55741;53.252;5.788;2023-04-20T14:25:33;12.30;99.90
54124;DHT22;55741;53.252;5.788;2023-04-20T14:27:59;12.40;99.90
54124;DHT22;55741;53.252;5.788;2023-04-20T14:30:24;12.50;99.90
54124;DHT22;55741;53.252;5.788;2023-04-20T14:32:54;12.70;99.90
54124;DHT22;55741;53.252;5.788;2023-04-20T14:35:21;12.90;99.90
54124;DHT22;55741;53.252;5.788;2023-04-20T14:37:47;13.00;99.90
54124;DHT22;55741;53.252;5.788;2023-04-20T14:40:13;13.10;99.90
54124;DHT22;55741;53.252;5.788;2023-04-20T14:42:40;13.20;99.90
54124;DHT22;55741;53.252;5.788;2023-04-20T14:45:06;13.30;99.90
54124;DHT22;55741;53.252;5.788;2023-04-20T14:47:32;13.30;99.90
54124;DHT22;55741;53.252;5.788;2023-04-20T14:49:58;13.20;99.90
54124;DHT22;55741;53.252;5.788;2023-04-20T14:52:24;13.10;99.90
54124;DHT22;55741;53.252;5.788;2023-04-20T14:54:50;13.10;99.90
54124;DHT22;55741;53.252;5.788;2023-04-20T14:57:16;13.00;99.90
54124;DHT22;55741;53.252;5.788;2023-04-20T14:59:42;12.90;99.90
54124;DHT22;55741;53.252;5.788;2023-04-20T15:02:09;12.80;99.90
54124;DHT22;55741;53.252;5.788;2023-04-20T15:04:35;12.70;99.90
54124;DHT22;55741;53.252;5.788;2023-04-20T15:07:01;12.60;99.90
54124;DHT22;55741;53.252;5.788;2023-04-20T15:09:26;12.40;99.90
54124;DHT22;55741;53.252;5.788;2023-04-20T15:11:52;12.40;99.90
54124;DHT22;55741;53.252;5.788;2023-04-20T15:14:19;12.40;99.90
54124;DHT22;55741;53.252;5.788;2023-04-20T15:16:45;12.50;99.90
54124;DHT22;55741;53.252;5.788;2023-04-20T15:19:10;12.60;99.90
54124;DHT22;55741;53.252;5.788;2023-04-20T15:21:36;12.60;99.90
54124;DHT22;55741;53.252;5.788;2023-04-20T15:24:02;12.60;99.90
54124;DHT22;55741;53.252;5.788;2023-04-20T15:26:28;12.50;99.90
54124;DHT22;55741;53.252;5.788;2023-04-20T15:28:54;12.50;99.90
54124;DHT22;55741;53.252;5.788;2023-04-20T15:31:21;12.40;99.90
54124;DHT22;55741;53.252;5.788;2023-04-20T15:33:47;12.20;99.90
54124;DHT22;55741;53.252;5.788;2023-04-20T15:36:16;12.20;99.90
54124;DHT22;55741;53.252;5.788;2023-04-20T15:38:44;12.10;99.90
54124;DHT22;55741;53.252;5.788;2023-04-20T15:41:11;12.20;99.90
54124;DHT22;55741;53.252;5.788;2023-04-20T15:43:36;12.40;99.90